sensor_id;sensor_type;location;lat;lon;timestamp;P1;durP1;ratioP1;P2;durP2;ratioP2
14994;SDS011;7593;49.006;8.372;2023-06-05T00:01:29;3.17;;;2.85;;
14994;SDS011;7593;49.006;8.372;2023-06-05T00:03:59;3.92;;;3.08;;
14994;SDS011;7593;49.006;8.372;2023-06-05T00:06:26;5.75;;;3.08;;
14994;SDS011;7593;49.006;8.372;2023-06-05T00:08:52;3.65;;;3.05;;
14994;SDS011;7593;49.006;8.372;2023-06-05T00:11:20;5.95;;;3.47;;
14994;SDS011;7593;49.006;8.372;2023-06-05T00:13:47;4.53;;;3.20;;
14994;SDS011;7593;49.006;8.372;2023-06-05T00:16:14;4.35;;;3.13;;
14994;SDS011;7593;49.006;8.372;2023-06-05T00:18:42;4.38;;;3.08;;
14994;SDS011;7593;49.006;8.372;2023-06-05T00:21:10;5.22;;;3.10;;
14994;SDS011;7593;49.006;8.372;2023-06-05T00:23:37;4.22;;;3.03;;
14994;SDS011;7593;49.006;8.372;2023-06-05T00:26:04;4.50;;;3.00;;
14994;SDS011;7593;49.006;8.372;2023-06-05T00:28:31;5.88;;;2.80;;
14994;SDS011;7593;49.006;8.372;2023-06-05T00:30:58;5.10;;;3.40;;
14994;SDS011;7593;49.006;8.372;2023-06-05T00:33:26;5.95;;;3.13;;
14994;SDS011;7593;49.006;8.372;2023-06-05T00:35:56;5.28;;;3.17;;
14994;SDS011;7593;49.006;8.372;2023-06-05T00:38:23;5.35;;;3.03;;
14994;SDS011;7593;49.006;8.372;2023-06-05T00:40:49;7.10;;;3.10;;
14994;SDS011;7593;49.006;8.372;2023-06-05T00:43:16;5.10;;;3.17;;
14994;SDS011;7593;49.006;8.372;2023-06-05T00:45:43;7.15;;;3.05;;
14994;SDS011;7593;49.006;8.372;2023-06-05T00:48:10;3.20;;;2.72;;
14994;SDS011;7593;49.006;8.372;2023-06-05T00:50:37;4.82;;;3.00;;
14994;SDS011;7593;49.006;8.372;2023-06-05T00:53:06;3.30;;;3.00;;
14994;SDS011;7593;49.006;8.372;2023-06-05T00:55:33;5.10;;;2.90;;
14994;SDS011;7593;49.006;8.372;2023-06-05T00:58:01;5.40;;;2.97;;
14994;SDS011;7593;49.006;8.372;2023-06-05T01:00:28;5.97;;;3.13;;
14994;SDS011;7593;49.006;8.372;2023-06-05T01:02:55;3.97;;;3.00;;
14994;SDS011;7593;49.006;8.372;2023-06-05T01:05:23;6.22;;;3.20;;
14994;SDS011;7593;49.006;8.372;2023-06-05T01:07:51;3.20;;;2.90;;
14994;SDS011;7593;49.006;8.372;2023-06-05T01:10:19;5.60;;;3.10;;
14994;SDS011;7593;49.006;8.372;2023-06-05T01:12:49;6.63;;;3.35;;
14994;SDS011;7593;49.006;8.372;2023-06-05T01:15:20;7.63;;;3.05;;
14994;SDS011;7593;49.006;8.372;2023-06-05T01:17:54;3.60;;;3.15;;
14994;SDS011;7593;49.006;8.372;2023-06-05T01:20:22;7.47;;;3.28;;
14994;SDS011;7593;49.006;8.372;2023-06-05T01:22:50;3.00;;;2.75;;
14994;SDS011;7593;49.006;8.372;2023-06-05T01:25:18;4.18;;;3.05;;
14994;SDS011;7593;49.006;8.372;2023-06-05T01:27:49;5.53;;;2.90;;
14994;SDS011;7593;49.006;8.372;2023-06-05T01:30:23;7.95;;;3.10;;
14994;SDS011;7593;49.006;8.372;2023-06-05T01:32:55;4.00;;;3.25;;
14994;SDS011;7593;49.006;8.372;2023-06-05T01:35:27;4.25;;;2.83;;
14994;SDS011;7593;49.006;8.372;2023-06-05T01:37:59;7.30;;;2.90;;
14994;SDS011;7593;49.006;8.372;2023-06-05T01:40:28;4.55;;;2.60;;
14994;SDS011;7593;49.006;8.372;2023-06-05T01:42:56;4.25;;;3.15;;
14994;SDS011;7593;49.006;8.372;2023-06-05T01:45:25;3.80;;;3.38;;
14994;SDS011;7593;49.006;8.372;2023-06-05T01:47:52;3.45;;;3.15;;
14994;SDS011;7593;49.006;8.372;2023-06-05T01:50:20;3.90;;;3.53;;
14994;SDS011;7593;49.006;8.372;2023-06-05T01:52:47;6.55;;;3.00;;
14994;SDS011;7593;49.006;8.372;2023-06-05T01:55:16;5.60;;;3.20;;
14994;SDS011;7593;49.006;8.372;2023-06-05T01:57:45;4.72;;;3.03;;
14994;SDS011;7593;49.006;8.372;2023-06-05T02:00:12;6.90;;;3.72;;
14994;SDS011;7593;49.006;8.372;2023-06-05T02:02:40;4.32;;;3.35;;
14994;SDS011;7593;49.006;8.372;2023-06-05T02:05:08;4.13;;;3.60;;
14994;SDS011;7593;49.006;8.372;2023-06-05T02:07:35;3.50;;;3.20;;
14994;SDS011;7593;49.006;8.372;2023-06-05T02:10:03;3.72;;;3.33;;
14994;SDS011;7593;49.006;8.372;2023-06-05T02:12:32;5.32;;;3.72;;
14994;SDS011;7593;49.006;8.372;2023-06-05T02:14:59;4.32;;;3.42;;
14994;SDS011;7593;49.006;8.372;2023-06-05T02:17:26;4.05;;;3.63;;
14994;SDS011;7593;49.006;8.372;2023-06-05T02:19:54;4.00;;;3.13;;
14994;SDS011;7593;49.006;8.372;2023-06-05T02:22:20;6.07;;;3.50;;
14994;SDS011;7593;49.006;8.372;2023-06-05T02:24:48;6.30;;;3.28;;
14994;SDS011;7593;49.006;8.372;2023-06-05T02:27:16;3.35;;;2.53;;
14994;SDS011;7593;49.006;8.372;2023-06-05T02:29:45;8.30;;;2.80;;
14994;SDS011;7593;49.006;8.372;2023-06-05T02:32:12;4.13;;;2.60;;
14994;SDS011;7593;49.006;8.372;2023-06-05T02:34:39;8.48;;;2.58;;
14994;SDS011;7593;49.006;8.372;2023-06-05T02:37:05;5.07;;;2.92;;
14994;SDS011;7593;49.006;8.372;2023-06-05T02:39:33;4.28;;;2.75;;
14994;SDS011;7593;49.006;8.372;2023-06-05T02:42:00;2.85;;;2.30;;
14994;SDS011;7593;49.006;8.372;2023-06-05T02:44:26;5.50;;;2.60;;
14994;SDS011;7593;49.006;8.372;2023-06-05T02:46:55;3.00;;;2.60;;
14994;SDS011;7593;49.006;8.372;2023-06-05T02:49:22;5.05;;;2.25;;
14994;SDS011;7593;49.006;8.372;2023-06-05T02:51:49;4.40;;;2.63;;
14994;SDS011;7593;49.006;8.372;2023-06-05T02:54:16;4.07;;;2.45;;
14994;SDS011;7593;49.006;8.372;2023-06-05T02:56:43;3.25;;;2.35;;
14994;SDS011;7593;49.006;8.372;2023-06-05T02:59:10;2.92;;;2.50;;
14994;SDS011;7593;49.006;8.372;2023-06-05T03:01:37;5.82;;;2.25;;
14994;SDS011;7593;49.006;8.372;2023-06-05T03:04:09;3.10;;;2.35;;
14994;SDS011;7593;49.006;8.372;2023-06-05T03:06:38;4.82;;;2.30;;
14994;SDS011;7593;49.006;8.372;2023-06-05T03:09:08;3.65;;;2.30;;
14994;SDS011;7593;49.006;8.372;2023-06-05T03:11:35;3.42;;;2.40;;
14994;SDS011;7593;49.006;8.372;2023-06-05T03:14:02;3.58;;;2.42;;
14994;SDS011;7593;49.006;8.372;2023-06-05T03:16:28;3.42;;;2.38;;
14994;SDS011;7593;49.006;8.372;2023-06-05T03:18:59;3.08;;;1.95;;
14994;SDS011;7593;49.006;8.372;2023-06-05T03:21:27;3.30;;;2.42;;
14994;SDS011;7593;49.006;8.372;2023-06-05T03:23:54;3.22;;;2.20;;
14994;SDS011;7593;49.006;8.372;2023-06-05T03:26:20;2.58;;;2.17;;
14994;SDS011;7593;49.006;8.372;2023-06-05T03:28:50;5.22;;;2.50;;
14994;SDS011;7593;49.006;8.372;2023-06-05T03:31:16;4.13;;;2.42;;
14994;SDS011;7593;49.006;8.372;2023-06-05T03:33:43;2.65;;;2.33;;
14994;SDS011;7593;49.006;8.372;2023-06-05T03:36:10;3.63;;;2.40;;
14994;SDS011;7593;49.006;8.372;2023-06-05T03:38:41;3.45;;;2.50;;
14994;SDS011;7593;49.006;8.372;2023-06-05T03:41:08;4.63;;;2.38;;
14994;SDS011;7593;49.006;8.372;2023-06-05T03:43:35;3.05;;;2.30;;
14994;SDS011;7593;49.006;8.372;2023-06-05T03:46:02;3.28;;;2.13;;
14994;SDS011;7593;49.006;8.372;2023-06-05T03:48:29;5.22;;;2.70;;
14994;SDS011;7593;49.006;8.372;2023-06-05T03:50:56;3.30;;;2.58;;
14994;SDS011;7593;49.006;8.372;2023-06-05T03:53:22;3.40;;;2.40;;
14994;SDS011;7593;49.006;8.372;2023-06-05T03:55:51;4.13;;;2.55;;
14994;SDS011;7593;49.006;8.372;2023-06-05T03:58:18;4.60;;;2.70;;
14994;SDS011;7593;49.006;8.372;2023-06-05T04:00:46;5.80;;;2.65;;
14994;SDS011;7593;49.006;8.372;2023-06-05T04:03:14;2.70;;;2.50;;
14994;SDS011;7593;49.006;8.372;2023-06-05T04:05:41;3.78;;;2.75;;
14994;SDS011;7593;49.006;8.372;2023-06-05T04:08:09;4.38;;;2.92;;
14994;SDS011;7593;49.006;8.372;2023-06-05T04:10:36;5.28;;;2.78;;
14994;SDS011;7593;49.006;8.372;2023-06-05T04:13:05;6.93;;;2.90;;
14994;SDS011;7593;49.006;8.372;2023-06-05T04:15:32;7.07;;;3.10;;
14994;SDS011;7593;49.006;8.372;2023-06-05T04:18:00;3.20;;;2.90;;
14994;SDS011;7593;49.006;8.372;2023-06-05T04:20:26;5.22;;;3.08;;
14994;SDS011;7593;49.006;8.372;2023-06-05T04:22:53;3.30;;;3.00;;
14994;SDS011;7593;49.006;8.372;2023-06-05T04:25:20;6.00;;;3.40;;
14994;SDS011;7593;49.006;8.372;2023-06-05T04:27:47;5.25;;;2.72;;
14994;SDS011;7593;49.006;8.372;2023-06-05T04:30:18;3.78;;;2.70;;
14994;SDS011;7593;49.006;8.372;2023-06-05T04:32:44;4.57;;;3.00;;
14994;SDS011;7593;49.006;8.372;2023-06-05T04:35:19;7.05;;;3.25;;
14994;SDS011;7593;49.006;8.372;2023-06-05T04:37:46;4.80;;;3.13;;
14994;SDS011;7593;49.006;8.372;2023-06-05T04:40:13;3.65;;;3.00;;
14994;SDS011;7593;49.006;8.372;2023-06-05T04:42:45;4.40;;;2.80;;
14994;SDS011;7593;49.006;8.372;2023-06-05T04:45:12;4.57;;;3.20;;
14994;SDS011;7593;49.006;8.372;2023-06-05T04:47:42;5.72;;;3.05;;
14994;SDS011;7593;49.006;8.372;2023-06-05T04:50:20;5.50;;;3.10;;
14994;SDS011;7593;49.006;8.372;2023-06-05T04:52:49;3.38;;;2.80;;
14994;SDS011;7593;49.006;8.372;2023-06-05T04:55:17;3.30;;;2.78;;
14994;SDS011;7593;49.006;8.372;2023-06-05T04:57:44;4.32;;;3.03;;
14994;SDS011;7593;49.006;8.372;2023-06-05T05:00:12;6.68;;;3.35;;
14994;SDS011;7593;49.006;8.372;2023-06-05T05:02:40;3.83;;;2.75;;
14994;SDS011;7593;49.006;8.372;2023-06-05T05:05:08;5.63;;;2.83;;
14994;SDS011;7593;49.006;8.372;2023-06-05T05:07:38;4.00;;;2.60;;
14994;SDS011;7593;49.006;8.372;2023-06-05T05:10:06;5.20;;;3.13;;
14994;SDS011;7593;49.006;8.372;2023-06-05T05:12:34;5.68;;;3.08;;
14994;SDS011;7593;49.006;8.372;2023-06-05T05:15:01;4.50;;;2.70;;
14994;SDS011;7593;49.006;8.372;2023-06-05T05:17:29;9.80;;;5.00;;
14994;SDS011;7593;49.006;8.372;2023-06-05T05:19:56;5.35;;;2.67;;
14994;SDS011;7593;49.006;8.372;2023-06-05T05:22:26;7.30;;;3.03;;
14994;SDS011;7593;49.006;8.372;2023-06-05T05:24:53;4.47;;;2.95;;
14994;SDS011;7593;49.006;8.372;2023-06-05T05:27:19;3.53;;;2.83;;
14994;SDS011;7593;49.006;8.372;2023-06-05T05:29:46;5.07;;;2.63;;
14994;SDS011;7593;49.006;8.372;2023-06-05T05:32:13;8.68;;;2.88;;
14994;SDS011;7593;49.006;8.372;2023-06-05T05:34:40;4.90;;;3.22;;
14994;SDS011;7593;49.006;8.372;2023-06-05T05:37:06;7.95;;;2.95;;
14994;SDS011;7593;49.006;8.372;2023-06-05T05:39:34;8.05;;;3.00;;
14994;SDS011;7593;49.006;8.372;2023-06-05T05:42:01;6.20;;;2.92;;
14994;SDS011;7593;49.006;8.372;2023-06-05T05:44:28;2.90;;;2.58;;
14994;SDS011;7593;49.006;8.372;2023-06-05T05:46:55;6.10;;;2.50;;
14994;SDS011;7593;49.006;8.372;2023-06-05T05:49:21;5.43;;;2.67;;
14994;SDS011;7593;49.006;8.372;2023-06-05T05:51:48;7.40;;;2.50;;
14994;SDS011;7593;49.006;8.372;2023-06-05T05:54:16;4.60;;;3.00;;
14994;SDS011;7593;49.006;8.372;2023-06-05T05:56:44;5.07;;;2.90;;
14994;SDS011;7593;49.006;8.372;2023-06-05T05:59:12;3.80;;;2.75;;
14994;SDS011;7593;49.006;8.372;2023-06-05T06:01:39;5.13;;;3.08;;
14994;SDS011;7593;49.006;8.372;2023-06-05T06:04:06;5.20;;;2.80;;
14994;SDS011;7593;49.006;8.372;2023-06-05T06:06:32;5.22;;;2.72;;
14994;SDS011;7593;49.006;8.372;2023-06-05T06:08:59;3.95;;;2.83;;
14994;SDS011;7593;49.006;8.372;2023-06-05T06:11:27;5.88;;;2.92;;
14994;SDS011;7593;49.006;8.372;2023-06-05T06:13:55;6.28;;;2.70;;
14994;SDS011;7593;49.006;8.372;2023-06-05T06:16:21;3.30;;;2.40;;
14994;SDS011;7593;49.006;8.372;2023-06-05T06:18:48;2.95;;;2.65;;
14994;SDS011;7593;49.006;8.372;2023-06-05T06:21:15;5.55;;;2.50;;
14994;SDS011;7593;49.006;8.372;2023-06-05T06:23:42;11.88;;;2.85;;
14994;SDS011;7593;49.006;8.372;2023-06-05T06:26:10;5.20;;;2.40;;
14994;SDS011;7593;49.006;8.372;2023-06-05T06:28:39;5.75;;;2.55;;
14994;SDS011;7593;49.006;8.372;2023-06-05T06:31:07;5.22;;;2.55;;
14994;SDS011;7593;49.006;8.372;2023-06-05T06:33:34;3.63;;;2.70;;
14994;SDS011;7593;49.006;8.372;2023-06-05T06:36:01;6.70;;;2.30;;
14994;SDS011;7593;49.006;8.372;2023-06-05T06:38:28;8.50;;;3.00;;
14994;SDS011;7593;49.006;8.372;2023-06-05T06:40:57;8.98;;;2.75;;
14994;SDS011;7593;49.006;8.372;2023-06-05T06:43:24;13.32;;;3.17;;
14994;SDS011;7593;49.006;8.372;2023-06-05T06:45:51;9.05;;;2.80;;
14994;SDS011;7593;49.006;8.372;2023-06-05T06:48:20;4.70;;;2.65;;
14994;SDS011;7593;49.006;8.372;2023-06-05T06:50:47;5.07;;;2.70;;
14994;SDS011;7593;49.006;8.372;2023-06-05T06:53:14;7.32;;;2.50;;
14994;SDS011;7593;49.006;8.372;2023-06-05T06:55:41;6.65;;;2.60;;
14994;SDS011;7593;49.006;8.372;2023-06-05T06:58:08;8.05;;;2.60;;
14994;SDS011;7593;49.006;8.372;2023-06-05T07:00:35;7.70;;;2.75;;
14994;SDS011;7593;49.006;8.372;2023-06-05T07:03:02;5.15;;;2.80;;
14994;SDS011;7593;49.006;8.372;2023-06-05T07:05:30;4.10;;;2.40;;
14994;SDS011;7593;49.006;8.372;2023-06-05T07:07:57;6.72;;;2.67;;
14994;SDS011;7593;49.006;8.372;2023-06-05T07:10:26;4.53;;;2.60;;
14994;SDS011;7593;49.006;8.372;2023-06-05T07:12:53;4.50;;;2.45;;
14994;SDS011;7593;49.006;8.372;2023-06-05T07:15:20;13.50;;;3.00;;
14994;SDS011;7593;49.006;8.372;2023-06-05T07:17:47;12.15;;;2.50;;
14994;SDS011;7593;49.006;8.372;2023-06-05T07:20:13;5.40;;;2.70;;
14994;SDS011;7593;49.006;8.372;2023-06-05T07:22:42;6.07;;;2.65;;
14994;SDS011;7593;49.006;8.372;2023-06-05T07:25:10;5.53;;;2.42;;
14994;SDS011;7593;49.006;8.372;2023-06-05T07:27:38;9.93;;;2.78;;
14994;SDS011;7593;49.006;8.372;2023-06-05T07:30:06;8.20;;;2.90;;
14994;SDS011;7593;49.006;8.372;2023-06-05T07:32:33;6.95;;;2.38;;
14994;SDS011;7593;49.006;8.372;2023-06-05T07:35:00;4.50;;;1.98;;
14994;SDS011;7593;49.006;8.372;2023-06-05T07:37:27;3.08;;;1.90;;
14994;SDS011;7593;49.006;8.372;2023-06-05T07:39:55;4.38;;;2.60;;
14994;SDS011;7593;49.006;8.372;2023-06-05T07:42:22;3.40;;;2.25;;
14994;SDS011;7593;49.006;8.372;2023-06-05T07:44:49;3.83;;;2.10;;
14994;SDS011;7593;49.006;8.372;2023-06-05T07:47:16;4.35;;;2.10;;
14994;SDS011;7593;49.006;8.372;2023-06-05T07:49:42;4.82;;;2.20;;
14994;SDS011;7593;49.006;8.372;2023-06-05T07:52:09;6.97;;;2.50;;
14994;SDS011;7593;49.006;8.372;2023-06-05T07:54:36;4.88;;;1.90;;
14994;SDS011;7593;49.006;8.372;2023-06-05T07:57:04;3.42;;;2.00;;
14994;SDS011;7593;49.006;8.372;2023-06-05T07:59:33;5.35;;;1.95;;
14994;SDS011;7593;49.006;8.372;2023-06-05T08:01:59;4.50;;;2.42;;
14994;SDS011;7593;49.006;8.372;2023-06-05T08:04:26;5.30;;;2.10;;
14994;SDS011;7593;49.006;8.372;2023-06-05T08:06:53;6.95;;;2.80;;
14994;SDS011;7593;49.006;8.372;2023-06-05T08:09:20;11.18;;;2.80;;
14994;SDS011;7593;49.006;8.372;2023-06-05T08:11:46;4.35;;;2.22;;
14994;SDS011;7593;49.006;8.372;2023-06-05T08:14:15;4.32;;;2.40;;
14994;SDS011;7593;49.006;8.372;2023-06-05T08:16:41;9.23;;;2.42;;
14994;SDS011;7593;49.006;8.372;2023-06-05T08:19:09;7.22;;;2.67;;
14994;SDS011;7593;49.006;8.372;2023-06-05T08:21:36;4.90;;;2.50;;
14994;SDS011;7593;49.006;8.372;2023-06-05T08:24:03;4.95;;;2.20;;
14994;SDS011;7593;49.006;8.372;2023-06-05T08:26:30;4.97;;;2.10;;
14994;SDS011;7593;49.006;8.372;2023-06-05T08:28:56;3.20;;;1.92;;
14994;SDS011;7593;49.006;8.372;2023-06-05T08:31:24;6.82;;;2.30;;
14994;SDS011;7593;49.006;8.372;2023-06-05T08:33:51;3.60;;;2.40;;
14994;SDS011;7593;49.006;8.372;2023-06-05T08:36:18;9.25;;;2.42;;
14994;SDS011;7593;49.006;8.372;2023-06-05T08:38:46;3.30;;;2.15;;
14994;SDS011;7593;49.006;8.372;2023-06-05T08:41:13;4.70;;;2.22;;
14994;SDS011;7593;49.006;8.372;2023-06-05T08:43:41;3.53;;;2.35;;
14994;SDS011;7593;49.006;8.372;2023-06-05T08:46:10;3.80;;;2.28;;
14994;SDS011;7593;49.006;8.372;2023-06-05T08:48:40;5.20;;;2.38;;
14994;SDS011;7593;49.006;8.372;2023-06-05T08:51:09;4.30;;;2.60;;
14994;SDS011;7593;49.006;8.372;2023-06-05T08:53:36;5.60;;;2.20;;
14994;SDS011;7593;49.006;8.372;2023-06-05T08:56:05;7.68;;;3.10;;
14994;SDS011;7593;49.006;8.372;2023-06-05T08:58:33;8.05;;;2.47;;
14994;SDS011;7593;49.006;8.372;2023-06-05T09:01:01;4.65;;;2.30;;
14994;SDS011;7593;49.006;8.372;2023-06-05T09:03:28;4.40;;;2.10;;
14994;SDS011;7593;49.006;8.372;2023-06-05T09:05:56;3.58;;;2.20;;
14994;SDS011;7593;49.006;8.372;2023-06-05T09:08:27;4.03;;;2.13;;
14994;SDS011;7593;49.006;8.372;2023-06-05T09:10:56;4.40;;;2.28;;
14994;SDS011;7593;49.006;8.372;2023-06-05T09:13:47;5.15;;;2.53;;
14994;SDS011;7593;49.006;8.372;2023-06-05T09:16:14;7.13;;;2.40;;
14994;SDS011;7593;49.006;8.372;2023-06-05T09:18:51;3.50;;;2.13;;
14994;SDS011;7593;49.006;8.372;2023-06-05T09:21:20;4.07;;;2.25;;
14994;SDS011;7593;49.006;8.372;2023-06-05T09:23:54;2.90;;;2.05;;
14994;SDS011;7593;49.006;8.372;2023-06-05T09:26:47;4.85;;;2.40;;
14994;SDS011;7593;49.006;8.372;2023-06-05T09:29:19;3.67;;;2.22;;
14994;SDS011;7593;49.006;8.372;2023-06-05T09:31:50;3.92;;;2.00;;
14994;SDS011;7593;49.006;8.372;2023-06-05T09:34:25;6.80;;;2.40;;
14994;SDS011;7593;49.006;8.372;2023-06-05T09:36:55;4.78;;;2.42;;
14994;SDS011;7593;49.006;8.372;2023-06-05T09:39:22;4.80;;;2.58;;
14994;SDS011;7593;49.006;8.372;2023-06-05T09:41:51;4.00;;;2.90;;
14994;SDS011;7593;49.006;8.372;2023-06-05T09:44:19;5.22;;;2.65;;
14994;SDS011;7593;49.006;8.372;2023-06-05T09:46:50;3.83;;;2.70;;
14994;SDS011;7593;49.006;8.372;2023-06-05T09:49:23;6.47;;;2.58;;
14994;SDS011;7593;49.006;8.372;2023-06-05T09:51:51;4.63;;;2.63;;
14994;SDS011;7593;49.006;8.372;2023-06-05T09:54:20;5.05;;;2.70;;
14994;SDS011;7593;49.006;8.372;2023-06-05T09:56:48;3.05;;;2.65;;
14994;SDS011;7593;49.006;8.372;2023-06-05T09:59:18;4.43;;;2.53;;
14994;SDS011;7593;49.006;8.372;2023-06-05T10:01:48;5.80;;;2.75;;
14994;SDS011;7593;49.006;8.372;2023-06-05T10:04:16;3.53;;;2.85;;
14994;SDS011;7593;49.006;8.372;2023-06-05T10:06:46;5.13;;;3.25;;
14994;SDS011;7593;49.006;8.372;2023-06-05T10:09:14;4.75;;;2.55;;
14994;SDS011;7593;49.006;8.372;2023-06-05T10:11:42;5.65;;;3.30;;
14994;SDS011;7593;49.006;8.372;2023-06-05T10:14:09;3.28;;;2.72;;
14994;SDS011;7593;49.006;8.372;2023-06-05T10:16:37;5.35;;;2.72;;
14994;SDS011;7593;49.006;8.372;2023-06-05T10:19:05;6.43;;;2.78;;
14994;SDS011;7593;49.006;8.372;2023-06-05T10:21:33;5.72;;;3.05;;
14994;SDS011;7593;49.006;8.372;2023-06-05T10:24:01;6.13;;;3.35;;
14994;SDS011;7593;49.006;8.372;2023-06-05T10:29:43;4.75;;;2.70;;
14994;SDS011;7593;49.006;8.372;2023-06-05T10:32:22;3.47;;;2.80;;
14994;SDS011;7593;49.006;8.372;2023-06-05T10:35:05;5.53;;;3.45;;
14994;SDS011;7593;49.006;8.372;2023-06-05T10:37:44;5.43;;;3.40;;
14994;SDS011;7593;49.006;8.372;2023-06-05T10:40:22;7.93;;;3.42;;
14994;SDS011;7593;49.006;8.372;2023-06-05T10:42:52;5.93;;;3.20;;
14994;SDS011;7593;49.006;8.372;2023-06-05T10:45:31;7.57;;;3.35;;
14994;SDS011;7593;49.006;8.372;2023-06-05T10:47:57;4.78;;;3.38;;
14994;SDS011;7593;49.006;8.372;2023-06-05T10:50:26;5.15;;;2.97;;
14994;SDS011;7593;49.006;8.372;2023-06-05T10:52:56;4.65;;;3.13;;
14994;SDS011;7593;49.006;8.372;2023-06-05T10:55:24;5.68;;;3.35;;
14994;SDS011;7593;49.006;8.372;2023-06-05T10:58:12;6.18;;;3.53;;
14994;SDS011;7593;49.006;8.372;2023-06-05T11:03:53;4.53;;;3.15;;
14994;SDS011;7593;49.006;8.372;2023-06-05T11:06:23;7.78;;;3.58;;
14994;SDS011;7593;49.006;8.372;2023-06-05T11:09:05;5.60;;;3.40;;
14994;SDS011;7593;49.006;8.372;2023-06-05T11:11:55;14.00;;;3.80;;
14994;SDS011;7593;49.006;8.372;2023-06-05T11:14:24;9.82;;;3.20;;
14994;SDS011;7593;49.006;8.372;2023-06-05T11:19:53;3.70;;;3.20;;
14994;SDS011;7593;49.006;8.372;2023-06-05T11:22:20;8.65;;;2.92;;
14994;SDS011;7593;49.006;8.372;2023-06-05T11:24:48;7.80;;;3.20;;
14994;SDS011;7593;49.006;8.372;2023-06-05T11:27:51;3.47;;;2.70;;
14994;SDS011;7593;49.006;8.372;2023-06-05T11:30:22;6.50;;;2.97;;
14994;SDS011;7593;49.006;8.372;2023-06-05T11:32:51;3.97;;;2.88;;
14994;SDS011;7593;49.006;8.372;2023-06-05T11:35:24;6.10;;;2.80;;
14994;SDS011;7593;49.006;8.372;2023-06-05T11:38:06;6.05;;;2.97;;
14994;SDS011;7593;49.006;8.372;2023-06-05T11:40:34;5.88;;;3.33;;
14994;SDS011;7593;49.006;8.372;2023-06-05T11:43:01;8.15;;;2.92;;
14994;SDS011;7593;49.006;8.372;2023-06-05T11:45:31;9.25;;;3.25;;
14994;SDS011;7593;49.006;8.372;2023-06-05T11:48:03;5.35;;;2.63;;
14994;SDS011;7593;49.006;8.372;2023-06-05T11:50:31;5.18;;;2.67;;
14994;SDS011;7593;49.006;8.372;2023-06-05T11:53:03;2.97;;;2.50;;
14994;SDS011;7593;49.006;8.372;2023-06-05T11:55:31;4.20;;;2.60;;
14994;SDS011;7593;49.006;8.372;2023-06-05T11:58:08;5.50;;;2.97;;
14994;SDS011;7593;49.006;8.372;2023-06-05T12:00:37;3.22;;;2.90;;
14994;SDS011;7593;49.006;8.372;2023-06-05T12:03:04;3.20;;;2.90;;
14994;SDS011;7593;49.006;8.372;2023-06-05T12:05:31;5.35;;;2.70;;
14994;SDS011;7593;49.006;8.372;2023-06-05T12:07:57;6.15;;;3.00;;
14994;SDS011;7593;49.006;8.372;2023-06-05T12:10:46;4.95;;;2.78;;
14994;SDS011;7593;49.006;8.372;2023-06-05T12:13:13;3.88;;;2.60;;
14994;SDS011;7593;49.006;8.372;2023-06-05T12:15:41;3.72;;;2.50;;
14994;SDS011;7593;49.006;8.372;2023-06-05T12:18:08;9.45;;;3.58;;
14994;SDS011;7593;49.006;8.372;2023-06-05T12:20:37;4.60;;;3.35;;
14994;SDS011;7593;49.006;8.372;2023-06-05T12:23:05;3.95;;;3.08;;
14994;SDS011;7593;49.006;8.372;2023-06-05T12:25:32;5.28;;;3.00;;
14994;SDS011;7593;49.006;8.372;2023-06-05T12:27:58;2.95;;;2.50;;
14994;SDS011;7593;49.006;8.372;2023-06-05T12:30:25;5.78;;;2.50;;
14994;SDS011;7593;49.006;8.372;2023-06-05T12:33:07;3.65;;;2.80;;
14994;SDS011;7593;49.006;8.372;2023-06-05T12:35:34;5.05;;;2.50;;
14994;SDS011;7593;49.006;8.372;2023-06-05T12:38:01;3.70;;;2.70;;
14994;SDS011;7593;49.006;8.372;2023-06-05T12:40:28;3.25;;;2.50;;
14994;SDS011;7593;49.006;8.372;2023-06-05T12:42:55;6.05;;;2.60;;
14994;SDS011;7593;49.006;8.372;2023-06-05T12:45:22;5.32;;;2.38;;
14994;SDS011;7593;49.006;8.372;2023-06-05T12:47:49;3.30;;;2.35;;
14994;SDS011;7593;49.006;8.372;2023-06-05T12:50:18;4.35;;;2.72;;
14994;SDS011;7593;49.006;8.372;2023-06-05T12:52:44;2.78;;;2.50;;
14994;SDS011;7593;49.006;8.372;2023-06-05T12:55:11;6.10;;;2.70;;
14994;SDS011;7593;49.006;8.372;2023-06-05T12:57:38;5.80;;;2.58;;
14994;SDS011;7593;49.006;8.372;2023-06-05T13:00:06;6.93;;;3.20;;
14994;SDS011;7593;49.006;8.372;2023-06-05T13:02:37;6.70;;;2.50;;
14994;SDS011;7593;49.006;8.372;2023-06-05T13:05:05;4.60;;;3.15;;
14994;SDS011;7593;49.006;8.372;2023-06-05T13:07:34;3.35;;;2.60;;
14994;SDS011;7593;49.006;8.372;2023-06-05T13:10:02;4.68;;;2.60;;
14994;SDS011;7593;49.006;8.372;2023-06-05T13:12:30;3.15;;;2.47;;
14994;SDS011;7593;49.006;8.372;2023-06-05T13:14:57;2.70;;;2.50;;
14994;SDS011;7593;49.006;8.372;2023-06-05T13:17:24;6.05;;;2.03;;
14994;SDS011;7593;49.006;8.372;2023-06-05T13:19:52;3.90;;;2.70;;
14994;SDS011;7593;49.006;8.372;2023-06-05T13:22:19;4.35;;;2.70;;
14994;SDS011;7593;49.006;8.372;2023-06-05T13:24:47;3.47;;;2.20;;
14994;SDS011;7593;49.006;8.372;2023-06-05T13:27:15;4.25;;;2.30;;
14994;SDS011;7593;49.006;8.372;2023-06-05T13:29:43;3.53;;;2.28;;
14994;SDS011;7593;49.006;8.372;2023-06-05T13:32:10;2.85;;;2.33;;
14994;SDS011;7593;49.006;8.372;2023-06-05T13:34:37;4.50;;;2.53;;
14994;SDS011;7593;49.006;8.372;2023-06-05T13:37:04;5.20;;;2.65;;
14994;SDS011;7593;49.006;8.372;2023-06-05T13:39:31;2.60;;;2.40;;
14994;SDS011;7593;49.006;8.372;2023-06-05T13:41:59;4.60;;;2.45;;
14994;SDS011;7593;49.006;8.372;2023-06-05T13:44:27;3.60;;;2.28;;
14994;SDS011;7593;49.006;8.372;2023-06-05T13:46:55;2.30;;;2.10;;
14994;SDS011;7593;49.006;8.372;2023-06-05T13:49:22;4.03;;;2.30;;
14994;SDS011;7593;49.006;8.372;2023-06-05T13:51:49;5.35;;;2.20;;
14994;SDS011;7593;49.006;8.372;2023-06-05T13:54:15;6.88;;;2.50;;
14994;SDS011;7593;49.006;8.372;2023-06-05T13:56:42;2.90;;;2.17;;
14994;SDS011;7593;49.006;8.372;2023-06-05T13:59:10;8.77;;;2.75;;
14994;SDS011;7593;49.006;8.372;2023-06-05T14:01:37;2.63;;;2.13;;
14994;SDS011;7593;49.006;8.372;2023-06-05T14:04:04;3.22;;;2.10;;
14994;SDS011;7593;49.006;8.372;2023-06-05T14:06:30;4.80;;;2.13;;
14994;SDS011;7593;49.006;8.372;2023-06-05T14:08:58;6.32;;;2.17;;
14994;SDS011;7593;49.006;8.372;2023-06-05T14:11:25;4.60;;;2.20;;
14994;SDS011;7593;49.006;8.372;2023-06-05T14:13:52;4.57;;;2.10;;
14994;SDS011;7593;49.006;8.372;2023-06-05T14:16:20;6.63;;;2.20;;
14994;SDS011;7593;49.006;8.372;2023-06-05T14:18:47;3.35;;;2.10;;
14994;SDS011;7593;49.006;8.372;2023-06-05T14:21:14;5.57;;;2.15;;
14994;SDS011;7593;49.006;8.372;2023-06-05T14:23:41;4.35;;;1.98;;
14994;SDS011;7593;49.006;8.372;2023-06-05T14:26:08;4.28;;;2.20;;
14994;SDS011;7593;49.006;8.372;2023-06-05T14:28:35;4.78;;;1.98;;
14994;SDS011;7593;49.006;8.372;2023-06-05T14:31:02;5.53;;;2.20;;
14994;SDS011;7593;49.006;8.372;2023-06-05T14:33:31;4.82;;;2.30;;
14994;SDS011;7593;49.006;8.372;2023-06-05T14:35:57;6.35;;;2.33;;
14994;SDS011;7593;49.006;8.372;2023-06-05T14:38:24;3.70;;;2.00;;
14994;SDS011;7593;49.006;8.372;2023-06-05T14:40:52;3.75;;;2.10;;
14994;SDS011;7593;49.006;8.372;2023-06-05T14:43:18;5.60;;;2.30;;
14994;SDS011;7593;49.006;8.372;2023-06-05T14:45:45;5.15;;;2.00;;
14994;SDS011;7593;49.006;8.372;2023-06-05T14:48:12;3.72;;;1.98;;
14994;SDS011;7593;49.006;8.372;2023-06-05T14:50:40;4.10;;;2.20;;
14994;SDS011;7593;49.006;8.372;2023-06-05T14:53:07;2.63;;;1.90;;
14994;SDS011;7593;49.006;8.372;2023-06-05T14:55:34;3.50;;;1.88;;
14994;SDS011;7593;49.006;8.372;2023-06-05T14:58:02;3.53;;;2.00;;
14994;SDS011;7593;49.006;8.372;2023-06-05T15:00:29;4.35;;;2.00;;
14994;SDS011;7593;49.006;8.372;2023-06-05T15:02:56;4.07;;;2.10;;
14994;SDS011;7593;49.006;8.372;2023-06-05T15:05:23;2.75;;;1.88;;
14994;SDS011;7593;49.006;8.372;2023-06-05T15:07:51;2.58;;;1.80;;
14994;SDS011;7593;49.006;8.372;2023-06-05T15:10:17;5.82;;;2.03;;
14994;SDS011;7593;49.006;8.372;2023-06-05T15:12:45;3.92;;;2.00;;
14994;SDS011;7593;49.006;8.372;2023-06-05T15:15:12;4.43;;;2.20;;
14994;SDS011;7593;49.006;8.372;2023-06-05T15:17:39;3.25;;;2.17;;